Time;durP1;ratioP1;P1;durP2;ratioP2;P2;SDS_P1;SDS_P2;PMS_P1;PMS_P2;Temp;Humidity;BMP_temperature;BMP_pressure;BME280_temperature;BME280_humidity;BME280_pressure;Samples;Min_cycle;Max_cycle;Signal;HPM_P1;HPM_P2
2021/07/07 00:01:15;;;;;;;5.23;3.33;;;;;;;;;;5053755;28;20440;-71
2021/07/07 00:03:41;;;;;;;3.83;2.47;;;;;;;;;;5061917;28;21002;-71
2021/07/07 00:06:07;;;;;;;5.03;3.27;;;;;;;;;;5073561;28;20444;-71
2021/07/07 00:08:33;;;;;;;5.87;2.73;;;;;;;;;;5065010;28;20457;-71
2021/07/07 00:11:00;;;;;;;5.17;3.70;;;;;;;;;;5053594;28;20475;-71
2021/07/07 00:13:26;;;;;;;3.63;2.60;;;;;;;;;;5066436;28;20415;-71
2021/07/07 00:15:52;;;;;;;3.83;2.97;;;;;;;;;;5093633;28;20558;-71
2021/07/07 00:18:18;;;;;;;5.37;3.37;;;;;;;;;;5075654;28;20924;-71
2021/07/07 00:20:54;;;;;;;4.00;2.80;;;;;;;;;;5053485;28;20447;-70
2021/07/07 00:23:21;;;;;;;4.07;3.30;;;;;;;;;;5054421;28;20429;-71
2021/07/07 00:25:48;;;;;;;4.03;3.33;;;;;;;;;;5053200;28;20446;-70
2021/07/07 00:28:14;;;;;;;3.77;3.30;;;;;;;;;;5061463;28;20916;-70
2021/07/07 00:30:40;;;;;;;4.30;3.33;;;;;;;;;;5089190;28;20491;-70
2021/07/07 00:33:06;;;;;;;5.17;3.93;;;;;;;;;;5075137;28;20459;-68
2021/07/07 00:35:32;;;;;;;5.10;3.73;;;;;;;;;;5093396;28;20783;-70
2021/07/07 00:37:58;;;;;;;5.00;3.50;;;;;;;;;;5087672;28;20511;-70
2021/07/07 00:40:24;;;;;;;5.27;3.27;;;;;;;;;;5056400;28;20508;-70
2021/07/07 00:42:50;;;;;;;5.80;3.23;;;;;;;;;;5052651;28;20766;-70
2021/07/07 00:45:17;;;;;;;4.30;3.87;;;;;;;;;;5052682;28;20874;-70
2021/07/07 00:47:45;;;;;;;4.30;3.60;;;;;;;;;;5052613;28;20460;-70
2021/07/07 00:50:11;;;;;;;7.10;4.00;;;;;;;;;;5089254;28;20447;-70
2021/07/07 00:52:38;;;;;;;4.10;3.57;;;;;;;;;;5072620;28;20412;-70
2021/07/07 00:55:08;;;;;;;7.33;3.87;;;;;;;;;;5090105;28;20428;-70
2021/07/07 00:57:35;;;;;;;5.70;3.73;;;;;;;;;;5092972;28;20457;-71
2021/07/07 01:00:01;;;;;;;4.77;3.30;;;;;;;;;;5072924;28;20803;-71
2021/07/07 01:02:28;;;;;;;5.43;3.23;;;;;;;;;;5072927;28;20889;-72
2021/07/07 01:04:54;;;;;;;6.20;4.20;;;;;;;;;;5071507;28;20791;-71
2021/07/07 01:07:20;;;;;;;7.70;3.90;;;;;;;;;;5072635;28;20433;-72
2021/07/07 01:09:46;;;;;;;4.50;3.53;;;;;;;;;;5056332;28;20457;-71
2021/07/07 01:12:12;;;;;;;4.20;3.07;;;;;;;;;;5052781;28;20455;-72
2021/07/07 01:14:38;;;;;;;4.30;3.50;;;;;;;;;;5080448;28;20463;-71
2021/07/07 01:17:05;;;;;;;4.90;3.50;;;;;;;;;;5092981;28;20482;-72
2021/07/07 01:19:31;;;;;;;4.63;3.30;;;;;;;;;;5080424;28;20842;-71
2021/07/07 01:21:57;;;;;;;4.90;3.07;;;;;;;;;;5072434;28;20397;-72
2021/07/07 01:24:23;;;;;;;3.77;3.03;;;;;;;;;;5064656;28;20900;-72
2021/07/07 01:26:49;;;;;;;3.60;3.10;;;;;;;;;;5052216;28;20438;-72
2021/07/07 01:29:16;;;;;;;5.00;2.77;;;;;;;;;;5063206;28;20461;-72
2021/07/07 01:31:42;;;;;;;3.97;2.80;;;;;;;;;;5063169;28;20753;-71
2021/07/07 01:34:08;;;;;;;4.57;3.30;;;;;;;;;;5066055;28;20897;-71
2021/07/07 01:36:35;;;;;;;3.93;3.00;;;;;;;;;;5072128;28;20409;-71
2021/07/07 01:39:03;;;;;;;3.80;2.97;;;;;;;;;;5072261;28;20773;-72
2021/07/07 01:41:29;;;;;;;2.97;2.37;;;;;;;;;;5070981;28;20435;-71
2021/07/07 01:43:55;;;;;;;3.33;2.60;;;;;;;;;;5072309;28;20401;-72
2021/07/07 01:46:21;;;;;;;4.47;3.03;;;;;;;;;;5071050;28;20440;-72
2021/07/07 01:48:47;;;;;;;4.13;2.97;;;;;;;;;;5072035;28;20448;-72
2021/07/07 01:51:13;;;;;;;4.50;2.90;;;;;;;;;;5071274;28;20474;-71
2021/07/07 01:53:39;;;;;;;3.43;2.70;;;;;;;;;;5077633;28;20418;-71
2021/07/07 01:56:05;;;;;;;3.80;3.07;;;;;;;;;;5074391;28;20496;-71
2021/07/07 01:58:31;;;;;;;5.43;3.10;;;;;;;;;;5072227;28;20448;-72
2021/07/07 02:00:57;;;;;;;5.40;3.60;;;;;;;;;;5069852;28;20835;-71
2021/07/07 02:03:23;;;;;;;3.67;3.00;;;;;;;;;;5071293;28;20439;-71
2021/07/07 02:05:49;;;;;;;6.97;3.23;;;;;;;;;;5078591;28;20826;-71
2021/07/07 02:08:16;;;;;;;3.90;3.43;;;;;;;;;;5092178;28;20478;-71
2021/07/07 02:10:42;;;;;;;5.23;3.30;;;;;;;;;;5090166;28;20981;-71
2021/07/07 02:13:09;;;;;;;4.20;3.20;;;;;;;;;;5095307;28;20439;-71
2021/07/07 02:15:35;;;;;;;3.70;3.07;;;;;;;;;;5083525;28;20437;-71
2021/07/07 02:18:02;;;;;;;4.47;2.90;;;;;;;;;;5055775;28;20418;-71
2021/07/07 02:20:29;;;;;;;4.10;3.40;;;;;;;;;;5059835;28;20416;-71
2021/07/07 02:22:55;;;;;;;4.30;3.40;;;;;;;;;;5075710;28;20397;-71
2021/07/07 02:25:25;;;;;;;4.50;3.17;;;;;;;;;;5071344;28;20424;-71
2021/07/07 02:27:51;;;;;;;3.60;2.87;;;;;;;;;;5055397;28;20501;-71
2021/07/07 02:30:19;;;;;;;4.27;3.00;;;;;;;;;;5059247;28;20445;-71
2021/07/07 02:32:45;;;;;;;3.53;3.00;;;;;;;;;;5071029;28;20418;-71
2021/07/07 02:35:13;;;;;;;3.97;3.27;;;;;;;;;;5056893;28;20395;-71
2021/07/07 02:37:39;;;;;;;6.00;3.70;;;;;;;;;;5095317;28;20388;-71
2021/07/07 02:40:07;;;;;;;3.93;3.00;;;;;;;;;;5093835;28;20422;-71
2021/07/07 02:42:33;;;;;;;3.50;3.20;;;;;;;;;;5095529;28;20392;-71
2021/07/07 02:44:59;;;;;;;3.87;3.43;;;;;;;;;;5092399;28;20400;-72
2021/07/07 02:47:25;;;;;;;6.00;3.60;;;;;;;;;;5071633;28;20976;-71
2021/07/07 02:49:51;;;;;;;4.57;3.87;;;;;;;;;;5073866;28;20452;-71
2021/07/07 02:52:17;;;;;;;4.60;3.63;;;;;;;;;;5073843;28;20772;-71
2021/07/07 02:54:43;;;;;;;4.87;3.63;;;;;;;;;;5075177;28;20432;-71
2021/07/07 02:57:09;;;;;;;3.93;3.43;;;;;;;;;;5059165;28;20429;-71
2021/07/07 02:59:35;;;;;;;4.20;3.00;;;;;;;;;;5063484;28;20976;-71
2021/07/07 03:02:02;;;;;;;9.57;6.13;;;;;;;;;;5071764;28;20424;-71
2021/07/07 03:04:28;;;;;;;4.27;3.10;;;;;;;;;;5055037;28;20422;-71
2021/07/07 03:06:54;;;;;;;4.43;3.40;;;;;;;;;;5082437;28;20994;-72
2021/07/07 03:09:20;;;;;;;4.70;3.73;;;;;;;;;;5065642;28;20455;-72
2021/07/07 03:11:46;;;;;;;4.10;3.43;;;;;;;;;;5073886;28;20425;-71
2021/07/07 03:14:12;;;;;;;5.73;3.50;;;;;;;;;;5074740;28;20409;-71
2021/07/07 03:16:38;;;;;;;4.03;3.63;;;;;;;;;;5084969;28;20424;-71
2021/07/07 03:19:04;;;;;;;4.53;3.67;;;;;;;;;;5094731;28;20411;-72
2021/07/07 03:21:30;;;;;;;4.37;3.47;;;;;;;;;;5093105;28;20423;-71
2021/07/07 03:23:56;;;;;;;4.10;3.53;;;;;;;;;;5095071;28;20471;-71
2021/07/07 03:26:22;;;;;;;6.17;4.83;;;;;;;;;;5092703;28;20448;-71
2021/07/07 03:28:49;;;;;;;3.93;3.50;;;;;;;;;;5094601;28;20481;-71
2021/07/07 03:31:15;;;;;;;6.57;3.87;;;;;;;;;;5078264;28;20767;-72
2021/07/07 03:33:41;;;;;;;6.87;3.40;;;;;;;;;;5054416;28;20425;-71
2021/07/07 03:36:07;;;;;;;5.07;3.47;;;;;;;;;;5066262;28;20448;-71
2021/07/07 03:38:33;;;;;;;4.17;3.27;;;;;;;;;;5094409;28;20424;-72
2021/07/07 03:41:00;;;;;;;4.63;3.23;;;;;;;;;;5065406;28;20428;-71
2021/07/07 03:43:26;;;;;;;6.77;3.93;;;;;;;;;;5054239;28;20447;-71
2021/07/07 03:45:52;;;;;;;5.03;4.00;;;;;;;;;;5057360;28;20802;-71
2021/07/07 03:48:18;;;;;;;4.50;3.47;;;;;;;;;;5070277;28;20425;-71
2021/07/07 03:50:44;;;;;;;5.77;4.37;;;;;;;;;;5060777;28;20894;-71
2021/07/07 03:53:10;;;;;;;4.50;3.77;;;;;;;;;;5094258;28;20392;-71
2021/07/07 03:55:37;;;;;;;5.00;3.90;;;;;;;;;;5077003;28;20920;-71
2021/07/07 03:58:03;;;;;;;4.50;3.00;;;;;;;;;;5076611;28;20405;-71
2021/07/07 04:00:30;;;;;;;5.07;3.57;;;;;;;;;;5073057;28;20525;-71
2021/07/07 04:02:57;;;;;;;4.20;3.20;;;;;;;;;;5073278;28;20405;-71
2021/07/07 04:05:23;;;;;;;6.67;3.50;;;;;;;;;;5073723;28;20877;-71
2021/07/07 04:07:49;;;;;;;6.00;2.73;;;;;;;;;;5091495;28;20819;-71
2021/07/07 04:10:17;;;;;;;4.73;3.10;;;;;;;;;;5093807;28;20885;-71
2021/07/07 04:12:43;;;;;;;3.80;2.83;;;;;;;;;;5077901;28;20412;-71
2021/07/07 04:15:10;;;;;;;2.77;2.10;;;;;;;;;;5093686;28;20473;-71
2021/07/07 04:17:36;;;;;;;2.87;2.40;;;;;;;;;;5075224;28;20428;-71
2021/07/07 04:20:03;;;;;;;4.40;2.87;;;;;;;;;;5073439;28;20818;-71
2021/07/07 04:22:29;;;;;;;2.70;2.30;;;;;;;;;;5072547;28;20460;-71
2021/07/07 04:24:55;;;;;;;4.17;3.47;;;;;;;;;;5073370;28;20397;-70
2021/07/07 04:27:21;;;;;;;3.47;2.87;;;;;;;;;;5071983;28;20440;-70
2021/07/07 04:29:47;;;;;;;2.60;2.27;;;;;;;;;;5072047;28;20432;-70
2021/07/07 04:32:16;;;;;;;3.90;2.60;;;;;;;;;;5071386;28;20784;-71
2021/07/07 04:34:42;;;;;;;3.20;2.47;;;;;;;;;;5072810;28;20426;-71
2021/07/07 04:37:08;;;;;;;3.40;2.80;;;;;;;;;;5083913;28;20423;-71
2021/07/07 04:39:34;;;;;;;2.23;1.90;;;;;;;;;;5093457;28;20992;-71
2021/07/07 04:42:00;;;;;;;2.47;1.87;;;;;;;;;;5091683;28;20570;-71
2021/07/07 04:44:26;;;;;;;2.37;2.00;;;;;;;;;;5093289;28;20407;-71
2021/07/07 04:46:52;;;;;;;2.30;1.80;;;;;;;;;;5078372;28;20448;-71
2021/07/07 04:49:18;;;;;;;2.83;2.03;;;;;;;;;;5073012;28;20427;-70
2021/07/07 04:51:44;;;;;;;4.43;2.20;;;;;;;;;;5064217;28;20795;-71
2021/07/07 04:54:10;;;;;;;3.70;1.90;;;;;;;;;;5053053;28;20867;-72
2021/07/07 04:56:36;;;;;;;2.50;1.80;;;;;;;;;;5052965;28;20436;-70
2021/07/07 04:59:02;;;;;;;2.47;1.80;;;;;;;;;;5054874;28;20445;-71
2021/07/07 05:01:28;;;;;;;3.00;2.20;;;;;;;;;;5072713;28;20403;-71
2021/07/07 05:03:54;;;;;;;2.20;2.00;;;;;;;;;;5074523;28;20432;-72
2021/07/07 05:06:20;;;;;;;2.07;1.63;;;;;;;;;;5093298;28;20467;-71
2021/07/07 05:08:46;;;;;;;3.33;2.80;;;;;;;;;;5090952;28;20444;-71
2021/07/07 05:11:12;;;;;;;3.97;2.50;;;;;;;;;;5093188;28;20392;-71
2021/07/07 05:13:38;;;;;;;2.80;1.90;;;;;;;;;;5091110;28;20419;-72
2021/07/07 05:16:05;;;;;;;2.83;2.00;;;;;;;;;;5093101;28;20428;-71
2021/07/07 05:18:31;;;;;;;2.83;2.20;;;;;;;;;;5091733;28;20431;-71
2021/07/07 05:20:57;;;;;;;4.67;1.87;;;;;;;;;;5092066;28;20430;-71
2021/07/07 05:23:23;;;;;;;4.53;2.13;;;;;;;;;;5093029;28;20431;-71
2021/07/07 05:25:49;;;;;;;6.03;1.70;;;;;;;;;;5071942;28;20814;-71
2021/07/07 05:28:16;;;;;;;4.43;2.53;;;;;;;;;;5072531;28;20897;-71
2021/07/07 05:30:42;;;;;;;4.80;2.50;;;;;;;;;;5088932;28;20424;-71
2021/07/07 05:33:09;;;;;;;3.70;2.43;;;;;;;;;;5093091;28;20395;-70
2021/07/07 05:35:35;;;;;;;3.20;2.60;;;;;;;;;;5089703;28;20424;-71
2021/07/07 05:38:01;;;;;;;4.30;2.87;;;;;;;;;;5092686;28;20404;-71
2021/07/07 05:40:27;;;;;;;2.80;1.90;;;;;;;;;;5091066;28;20420;-71
2021/07/07 05:42:53;;;;;;;2.60;1.47;;;;;;;;;;5091453;28;20407;-71
2021/07/07 05:45:23;;;;;;;2.53;2.03;;;;;;;;;;5090661;28;20912;-71
2021/07/07 05:47:49;;;;;;;2.50;1.80;;;;;;;;;;5096518;28;20443;-70
2021/07/07 05:50:16;;;;;;;3.00;1.70;;;;;;;;;;5082716;28;20440;-71
2021/07/07 05:52:43;;;;;;;2.27;1.70;;;;;;;;;;5076205;28;20401;-71
2021/07/07 05:55:09;;;;;;;2.70;1.87;;;;;;;;;;5086648;28;20415;-71
2021/07/07 05:57:38;;;;;;;2.50;2.10;;;;;;;;;;5096451;28;20474;-71
2021/07/07 06:00:08;;;;;;;8.73;2.57;;;;;;;;;;5079335;28;20536;-71
2021/07/07 06:02:34;;;;;;;2.60;1.90;;;;;;;;;;5058803;28;20430;-71
2021/07/07 06:05:00;;;;;;;2.70;1.93;;;;;;;;;;5085273;28;20926;-71
2021/07/07 06:07:26;;;;;;;2.50;1.80;;;;;;;;;;5057793;28;20540;-72
2021/07/07 06:09:52;;;;;;;3.00;1.70;;;;;;;;;;5059470;28;20540;-71
2021/07/07 06:12:18;;;;;;;5.23;2.00;;;;;;;;;;5055910;28;20817;-71
2021/07/07 06:14:44;;;;;;;3.83;1.40;;;;;;;;;;5069693;28;20439;-71
2021/07/07 06:17:10;;;;;;;2.37;1.70;;;;;;;;;;5096170;28;20408;-71
2021/07/07 06:19:36;;;;;;;2.20;1.40;;;;;;;;;;5093789;28;20535;-71
2021/07/07 06:22:02;;;;;;;3.00;1.80;;;;;;;;;;5095959;28;20441;-70
2021/07/07 06:24:29;;;;;;;2.10;1.63;;;;;;;;;;5093861;28;20424;-71
2021/07/07 06:26:55;;;;;;;2.20;1.67;;;;;;;;;;5095691;28;20475;-70
2021/07/07 06:29:21;;;;;;;2.37;1.60;;;;;;;;;;5092910;28;20633;-71
2021/07/07 06:31:47;;;;;;;2.80;1.73;;;;;;;;;;5073893;28;20467;-70
2021/07/07 06:34:13;;;;;;;8.50;3.77;;;;;;;;;;5075526;28;20448;-71
2021/07/07 06:36:40;;;;;;;3.67;2.20;;;;;;;;;;5092395;28;20481;-71
2021/07/07 06:39:06;;;;;;;5.10;1.60;;;;;;;;;;5095877;28;20786;-71
2021/07/07 06:41:32;;;;;;;3.67;2.00;;;;;;;;;;5060988;28;20429;-71
2021/07/07 06:43:59;;;;;;;6.70;2.10;;;;;;;;;;5055470;28;20831;-71
2021/07/07 06:46:25;;;;;;;3.07;1.90;;;;;;;;;;5054888;28;20452;-71
2021/07/07 06:48:51;;;;;;;3.97;2.57;;;;;;;;;;5055108;28;20421;-71
2021/07/07 06:51:17;;;;;;;4.07;2.87;;;;;;;;;;5059240;28;20426;-71
2021/07/07 06:53:43;;;;;;;3.00;2.40;;;;;;;;;;5055307;28;20402;-71
2021/07/07 06:56:09;;;;;;;2.93;1.90;;;;;;;;;;5080005;28;20427;-72
2021/07/07 06:58:35;;;;;;;2.93;2.00;;;;;;;;;;5094583;28;20458;-71
2021/07/07 07:01:01;;;;;;;2.43;1.80;;;;;;;;;;5092982;28;20416;-70
2021/07/07 07:03:27;;;;;;;4.90;1.90;;;;;;;;;;5095392;28;20478;-71
2021/07/07 07:05:54;;;;;;;2.60;1.67;;;;;;;;;;5083069;28;20449;-71
2021/07/07 07:08:20;;;;;;;3.30;1.97;;;;;;;;;;5075012;28;20428;-71
2021/07/07 07:10:46;;;;;;;3.17;1.70;;;;;;;;;;5082633;28;20469;-71
2021/07/07 07:13:12;;;;;;;3.10;1.50;;;;;;;;;;5094870;28;20396;-71
2021/07/07 07:15:38;;;;;;;3.87;2.00;;;;;;;;;;5092752;28;20428;-71
2021/07/07 07:18:04;;;;;;;7.23;2.30;;;;;;;;;;5094862;28;20461;-71
2021/07/07 07:20:30;;;;;;;2.60;1.90;;;;;;;;;;5080944;28;20427;-71
2021/07/07 07:22:58;;;;;;;2.90;1.90;;;;;;;;;;5054567;28;20402;-71
2021/07/07 07:25:24;;;;;;;3.23;1.70;;;;;;;;;;5063930;28;20424;-71
2021/07/07 07:27:50;;;;;;;2.30;1.50;;;;;;;;;;5087419;28;20929;-71
2021/07/07 07:30:16;;;;;;;3.00;1.93;;;;;;;;;;5076779;28;20987;-71
2021/07/07 07:32:43;;;;;;;4.60;1.90;;;;;;;;;;5094525;28;20456;-71
2021/07/07 07:35:09;;;;;;;6.23;2.50;;;;;;;;;;5092341;28;20509;-71
2021/07/07 07:38:26;;;;;;;3.20;1.90;;;;;;;;;;5095295;28;20404;-71
2021/07/07 07:40:47;;;;;;;2.93;1.90;;;;;;;;;;5081484;28;20445;-71
2021/07/07 07:43:09;;;;;;;3.57;1.50;;;;;;;;;;5053787;28;20552;-71
2021/07/07 07:45:36;;;;;;;2.40;1.50;;;;;;;;;;5053867;28;20453;-71
2021/07/07 07:48:03;;;;;;;2.30;1.60;;;;;;;;;;5054047;28;20406;-71
2021/07/07 07:50:29;;;;;;;3.03;1.90;;;;;;;;;;5057885;28;20420;-71
2021/07/07 07:52:55;;;;;;;2.40;1.80;;;;;;;;;;5073819;28;20397;-70
2021/07/07 07:55:22;;;;;;;2.37;1.80;;;;;;;;;;5072533;28;20417;-71
2021/07/07 07:57:49;;;;;;;3.20;1.43;;;;;;;;;;5073746;28;20492;-70
2021/07/07 08:00:19;;;;;;;3.20;1.97;;;;;;;;;;5075017;28;20888;-71
2021/07/07 08:02:46;;;;;;;5.50;2.00;;;;;;;;;;5092048;28;20908;-71
2021/07/07 08:05:13;;;;;;;3.80;2.20;;;;;;;;;;5091847;28;20903;-71
2021/07/07 08:07:39;;;;;;;6.40;3.50;;;;;;;;;;5094028;28;20520;-71
2021/07/07 08:10:06;;;;;;;3.43;2.13;;;;;;;;;;5089180;28;20772;-71
2021/07/07 08:12:32;;;;;;;5.37;3.60;;;;;;;;;;5053495;28;20406;-71
2021/07/07 08:14:58;;;;;;;4.70;2.20;;;;;;;;;;5053364;28;20429;-70
2021/07/07 08:17:24;;;;;;;3.33;2.00;;;;;;;;;;5067833;28;20442;-70
2021/07/07 08:19:50;;;;;;;3.63;2.50;;;;;;;;;;5053464;28;20479;-71
2021/07/07 08:22:16;;;;;;;3.13;2.37;;;;;;;;;;5071080;28;20940;-70
2021/07/07 08:24:43;;;;;;;4.70;2.13;;;;;;;;;;5072527;28;20911;-71
2021/07/07 08:27:09;;;;;;;4.43;2.30;;;;;;;;;;5088555;28;20528;-70
2021/07/07 08:29:36;;;;;;;4.50;2.03;;;;;;;;;;5093673;28;20844;-71
2021/07/07 08:32:07;;;;;;;3.50;2.07;;;;;;;;;;5074989;28;20421;-70
2021/07/07 08:34:33;;;;;;;4.03;2.30;;;;;;;;;;5072042;28;20401;-70
2021/07/07 08:36:59;;;;;;;4.53;1.90;;;;;;;;;;5087475;28;20423;-71
2021/07/07 08:39:25;;;;;;;3.47;1.80;;;;;;;;;;5093238;28;20443;-70
2021/07/07 08:41:51;;;;;;;5.37;2.10;;;;;;;;;;5064490;28;20517;-70
2021/07/07 08:44:17;;;;;;;3.00;1.87;;;;;;;;;;5052952;28;20402;-70
2021/07/07 08:46:44;;;;;;;3.37;1.77;;;;;;;;;;5052501;28;20896;-70
2021/07/07 08:49:10;;;;;;;3.13;1.80;;;;;;;;;;5051505;28;20444;-70
2021/07/07 08:51:40;;;;;;;2.33;1.60;;;;;;;;;;5052870;28;20425;-71
2021/07/07 08:54:07;;;;;;;2.30;1.37;;;;;;;;;;5053144;28;20378;-71
2021/07/07 08:56:38;;;;;;;4.10;1.97;;;;;;;;;;5052799;28;20437;-70
2021/07/07 08:59:04;;;;;;;2.80;1.67;;;;;;;;;;5052851;28;20417;-71
2021/07/07 09:01:30;;;;;;;2.40;1.67;;;;;;;;;;5061143;28;20546;-71
2021/07/07 09:03:57;;;;;;;6.63;1.63;;;;;;;;;;5072839;28;20487;-71
2021/07/07 09:06:23;;;;;;;2.90;1.63;;;;;;;;;;5071718;28;20547;-71
2021/07/07 09:08:49;;;;;;;3.57;1.80;;;;;;;;;;5078557;28;20512;-71
2021/07/07 09:11:18;;;;;;;2.10;1.50;;;;;;;;;;5090903;28;20412;-71
2021/07/07 09:13:46;;;;;;;2.13;1.50;;;;;;;;;;5092610;28;20461;-72
2021/07/07 09:16:13;;;;;;;6.97;2.30;;;;;;;;;;5090865;28;20456;-72
2021/07/07 09:18:39;;;;;;;3.50;1.70;;;;;;;;;;5092834;28;20424;-70
2021/07/07 09:21:24;;;;;;;3.20;1.80;;;;;;;;;;5092605;28;20427;-71
2021/07/07 09:23:50;;;;;;;2.07;1.47;;;;;;;;;;5097266;28;20380;-70
2021/07/07 09:26:25;;;;;;;5.43;2.30;;;;;;;;;;5094967;28;20983;-71
2021/07/07 09:28:51;;;;;;;4.80;2.00;;;;;;;;;;5096814;28;20415;-71
2021/07/07 09:31:38;;;;;;;2.13;1.80;;;;;;;;;;5093749;28;20503;-71
2021/07/07 09:34:13;;;;;;;4.27;2.00;;;;;;;;;;5097142;28;20380;-71
2021/07/07 09:36:41;;;;;;;3.67;1.90;;;;;;;;;;5075842;28;20432;-71
2021/07/07 09:39:07;;;;;;;3.63;1.67;;;;;;;;;;5056332;28;20430;-71
2021/07/07 09:41:34;;;;;;;3.30;1.73;;;;;;;;;;5073411;28;20460;-71
2021/07/07 09:44:01;;;;;;;3.20;2.10;;;;;;;;;;5078748;28;20424;-71
2021/07/07 09:46:27;;;;;;;3.60;2.07;;;;;;;;;;5082528;28;20485;-71
2021/07/07 09:48:54;;;;;;;3.03;1.97;;;;;;;;;;5096505;28;20426;-71
2021/07/07 09:51:20;;;;;;;2.70;1.80;;;;;;;;;;5082301;28;20413;-71
2021/07/07 09:53:47;;;;;;;2.90;1.93;;;;;;;;;;5056266;28;20398;-71
2021/07/07 09:56:13;;;;;;;2.60;1.87;;;;;;;;;;5065927;28;20415;-71
2021/07/07 09:58:39;;;;;;;2.50;1.93;;;;;;;;;;5096640;28;20427;-71
2021/07/07 10:01:05;;;;;;;3.87;2.20;;;;;;;;;;5093699;28;20988;-71
2021/07/07 10:03:32;;;;;;;3.37;1.90;;;;;;;;;;5096422;28;20433;-71
2021/07/07 10:05:59;;;;;;;4.47;2.30;;;;;;;;;;5094056;28;20424;-71
2021/07/07 10:08:25;;;;;;;2.60;1.87;;;;;;;;;;5095996;28;20424;-71
2021/07/07 10:10:52;;;;;;;3.80;2.73;;;;;;;;;;5077194;28;20455;-71
2021/07/07 10:13:18;;;;;;;3.90;2.43;;;;;;;;;;5055720;28;20402;-71
2021/07/07 10:15:46;;;;;;;3.20;2.07;;;;;;;;;;5056030;28;20413;-71
2021/07/07 10:18:12;;;;;;;4.03;2.80;;;;;;;;;;5075442;28;20428;-71
2021/07/07 10:20:38;;;;;;;4.10;2.57;;;;;;;;;;5057858;28;20417;-71
2021/07/07 10:23:06;;;;;;;4.20;2.30;;;;;;;;;;5065732;28;20445;-71
2021/07/07 10:25:32;;;;;;;2.53;2.20;;;;;;;;;;5095674;28;20998;-71
2021/07/07 10:28:01;;;;;;;4.73;2.63;;;;;;;;;;5085365;28;20484;-71
2021/07/07 10:30:46;;;;;;;2.97;2.33;;;;;;;;;;5055331;28;20401;-71
2021/07/07 10:33:12;;;;;;;5.17;2.97;;;;;;;;;;5065939;28;20408;-71
2021/07/07 10:35:39;;;;;;;4.40;2.17;;;;;;;;;;5095849;28;20440;-71
2021/07/07 10:38:06;;;;;;;2.40;1.70;;;;;;;;;;5084025;28;20413;-71
2021/07/07 10:40:34;;;;;;;2.80;2.10;;;;;;;;;;5055195;28;20425;-71
2021/07/07 10:43:01;;;;;;;2.90;2.00;;;;;;;;;;5062783;28;20437;-71
2021/07/07 10:45:43;;;;;;;3.90;1.90;;;;;;;;;;5094248;28;20480;-72
2021/07/07 10:48:21;;;;;;;3.60;1.80;;;;;;;;;;5064636;28;20560;-71
2021/07/07 10:50:47;;;;;;;5.13;2.63;;;;;;;;;;5093409;28;20415;-71
2021/07/07 10:53:24;;;;;;;2.20;1.80;;;;;;;;;;5092761;28;21014;-71
2021/07/07 10:55:50;;;;;;;2.90;2.13;;;;;;;;;;5095088;28;20811;-71
2021/07/07 10:58:23;;;;;;;2.40;2.10;;;;;;;;;;5088820;28;20754;-71
2021/07/07 11:00:49;;;;;;;3.20;2.23;;;;;;;;;;5073025;28;20412;-71
2021/07/07 11:03:32;;;;;;;2.53;2.00;;;;;;;;;;5078747;28;20430;-71
2021/07/07 11:06:24;;;;;;;3.93;1.90;;;;;;;;;;5094991;28;20411;-71
2021/07/07 11:08:51;;;;;;;3.30;2.03;;;;;;;;;;5093063;28;20834;-72
2021/07/07 11:11:24;;;;;;;3.40;2.03;;;;;;;;;;5095164;28;20408;-71
2021/07/07 11:13:50;;;;;;;2.17;1.50;;;;;;;;;;5076960;28;20597;-71
2021/07/07 11:16:23;;;;;;;2.03;1.30;;;;;;;;;;5054617;28;20871;-71
2021/07/07 11:18:50;;;;;;;2.23;1.47;;;;;;;;;;5073000;28;20443;-71
2021/07/07 11:21:17;;;;;;;3.07;1.50;;;;;;;;;;5094883;28;20412;-71
2021/07/07 11:23:44;;;;;;;1.80;1.30;;;;;;;;;;5084768;28;20429;-71
2021/07/07 11:26:10;;;;;;;1.70;1.10;;;;;;;;;;5074667;28;20448;-71
2021/07/07 11:28:37;;;;;;;4.73;1.43;;;;;;;;;;5066726;28;20441;-71
2021/07/07 11:31:03;;;;;;;2.73;1.20;;;;;;;;;;5055150;28;20402;-71
2021/07/07 11:33:29;;;;;;;2.40;1.30;;;;;;;;;;5065285;28;20492;-71
2021/07/07 11:35:55;;;;;;;1.90;1.10;;;;;;;;;;5094770;28;20399;-71
2021/07/07 11:38:23;;;;;;;2.27;1.43;;;;;;;;;;5092504;28;20437;-71
2021/07/07 11:40:53;;;;;;;2.13;1.30;;;;;;;;;;5094303;28;20791;-71
2021/07/07 11:43:28;;;;;;;1.60;0.90;;;;;;;;;;5092318;28;20424;-71
2021/07/07 11:45:58;;;;;;;1.80;1.57;;;;;;;;;;5094511;28;20396;-71
2021/07/07 11:48:48;;;;;;;1.83;1.27;;;;;;;;;;5087067;28;20804;-71
2021/07/07 11:51:22;;;;;;;2.00;1.10;;;;;;;;;;5073638;28;20448;-70
2021/07/07 11:53:48;;;;;;;1.83;1.30;;;;;;;;;;5070253;28;20464;-70
2021/07/07 11:56:16;;;;;;;6.07;1.50;;;;;;;;;;5073864;28;20594;-70
2021/07/07 11:58:45;;;;;;;1.87;1.10;;;;;;;;;;5078502;28;20951;-69
2021/07/07 12:01:24;;;;;;;2.13;1.20;;;;;;;;;;5092665;28;20752;-70
2021/07/07 12:03:53;;;;;;;3.33;1.60;;;;;;;;;;5092132;28;20515;-70
2021/07/07 12:06:27;;;;;;;4.13;1.30;;;;;;;;;;5093642;28;20974;-71
2021/07/07 12:08:54;;;;;;;2.00;1.00;;;;;;;;;;5091782;28;20454;-70
2021/07/07 12:11:20;;;;;;;2.20;1.50;;;;;;;;;;5093759;28;20439;-70
2021/07/07 12:13:47;;;;;;;1.90;1.00;;;;;;;;;;5084253;28;20436;-70
2021/07/07 12:16:25;;;;;;;2.23;1.30;;;;;;;;;;5073537;28;20409;-70
2021/07/07 12:19:11;;;;;;;1.70;1.20;;;;;;;;;;5072330;28;20948;-70
2021/07/07 12:21:48;;;;;;;2.60;1.47;;;;;;;;;;5074048;28;20396;-70
2021/07/07 12:24:20;;;;;;;3.50;1.50;;;;;;;;;;5082656;28;20442;-70
2021/07/07 12:26:48;;;;;;;2.87;1.50;;;;;;;;;;5093625;28;20470;-70
2021/07/07 12:29:18;;;;;;;3.03;1.57;;;;;;;;;;5091792;28;20562;-70
2021/07/07 12:31:45;;;;;;;2.23;1.43;;;;;;;;;;5079274;28;20430;-70
2021/07/07 12:34:12;;;;;;;3.27;1.50;;;;;;;;;;5053226;28;20592;-70
2021/07/07 12:36:39;;;;;;;2.50;1.57;;;;;;;;;;5051957;28;20509;-70
2021/07/07 12:39:11;;;;;;;1.90;1.37;;;;;;;;;;5068683;28;20448;-70
2021/07/07 12:41:38;;;;;;;2.10;1.53;;;;;;;;;;5093102;28;20741;-70
2021/07/07 12:44:15;;;;;;;2.43;1.43;;;;;;;;;;5086526;28;20840;-70
2021/07/07 12:46:47;;;;;;;4.53;1.70;;;;;;;;;;5073188;28;20497;-70
2021/07/07 12:49:21;;;;;;;2.30;1.57;;;;;;;;;;5075724;28;20501;-70
2021/07/07 12:51:47;;;;;;;4.67;1.53;;;;;;;;;;5090994;28;20485;-70
2021/07/07 12:54:23;;;;;;;4.20;1.60;;;;;;;;;;5090880;28;20495;-70
2021/07/07 12:56:55;;;;;;;1.80;1.27;;;;;;;;;;5092232;28;20900;-70
2021/07/07 12:59:22;;;;;;;1.93;1.30;;;;;;;;;;5087967;28;22744;-71
2021/07/07 13:01:58;;;;;;;2.73;1.57;;;;;;;;;;5072642;28;20408;-70
2021/07/07 13:04:24;;;;;;;2.53;1.43;;;;;;;;;;5071636;28;20765;-72
2021/07/07 13:07:01;;;;;;;1.93;1.00;;;;;;;;;;5052512;28;21036;-71
2021/07/07 13:09:27;;;;;;;1.90;1.20;;;;;;;;;;5052653;28;20471;-70
2021/07/07 13:12:09;;;;;;;1.80;1.23;;;;;;;;;;5093122;28;20507;-70
2021/07/07 13:14:36;;;;;;;1.90;1.00;;;;;;;;;;5089062;28;20434;-70
2021/07/07 13:17:03;;;;;;;1.97;1.37;;;;;;;;;;5071939;28;20432;-71
2021/07/07 13:19:36;;;;;;;1.60;1.00;;;;;;;;;;5071427;28;20424;-70
2021/07/07 13:22:02;;;;;;;1.93;1.20;;;;;;;;;;5052585;28;20397;-70
2021/07/07 13:24:38;;;;;;;2.77;1.20;;;;;;;;;;5052521;28;20413;-71
2021/07/07 13:27:12;;;;;;;2.07;1.30;;;;;;;;;;5052410;28;20854;-70
2021/07/07 13:29:38;;;;;;;2.13;1.30;;;;;;;;;;5052659;28;20421;-71
2021/07/07 13:32:09;;;;;;;1.83;1.30;;;;;;;;;;5053002;28;20429;-70
2021/07/07 13:34:36;;;;;;;2.43;1.37;;;;;;;;;;5053108;28;20415;-71
2021/07/07 13:37:09;;;;;;;4.07;1.17;;;;;;;;;;5093227;28;20403;-70
2021/07/07 13:39:35;;;;;;;3.30;1.67;;;;;;;;;;5090879;28;20461;-71
2021/07/07 13:42:01;;;;;;;2.00;1.20;;;;;;;;;;5092603;28;20506;-71
2021/07/07 13:44:27;;;;;;;2.20;1.30;;;;;;;;;;5092911;28;20435;-70
2021/07/07 13:46:53;;;;;;;3.60;1.87;;;;;;;;;;5090232;28;20459;-70
2021/07/07 13:49:19;;;;;;;2.90;1.20;;;;;;;;;;5092444;28;20423;-70
2021/07/07 13:51:45;;;;;;;2.40;1.00;;;;;;;;;;5072489;28;20428;-69
2021/07/07 13:54:11;;;;;;;1.80;1.20;;;;;;;;;;5082786;28;20451;-70
2021/07/07 13:56:37;;;;;;;1.97;1.10;;;;;;;;;;5090797;28;20479;-69
2021/07/07 13:59:03;;;;;;;1.70;1.10;;;;;;;;;;5089297;28;20501;-70
2021/07/07 14:01:29;;;;;;;2.40;1.20;;;;;;;;;;5090258;28;20423;-69
2021/07/07 14:03:55;;;;;;;2.50;1.50;;;;;;;;;;5092593;28;20439;-69
2021/07/07 14:06:21;;;;;;;4.83;2.70;;;;;;;;;;5071920;28;20518;-70
2021/07/07 14:08:48;;;;;;;2.80;1.40;;;;;;;;;;5055969;28;20433;-70
2021/07/07 14:11:14;;;;;;;2.03;1.30;;;;;;;;;;5067846;28;20901;-70
2021/07/07 14:13:40;;;;;;;2.33;1.27;;;;;;;;;;5074778;28;20498;-71
2021/07/07 14:16:06;;;;;;;5.30;1.40;;;;;;;;;;5074065;28;20781;-70
2021/07/07 14:18:32;;;;;;;1.93;1.40;;;;;;;;;;5075540;28;20499;-71
2021/07/07 14:20:59;;;;;;;2.93;1.10;;;;;;;;;;5070058;28;20464;-71
2021/07/07 14:23:25;;;;;;;2.17;1.43;;;;;;;;;;5055689;28;20458;-70
2021/07/07 14:25:51;;;;;;;1.97;1.30;;;;;;;;;;5062739;28;20462;-70
2021/07/07 14:28:17;;;;;;;2.43;1.40;;;;;;;;;;5095706;28;20396;-70
2021/07/07 14:30:43;;;;;;;1.97;1.40;;;;;;;;;;5093585;28;20768;-70
2021/07/07 14:33:09;;;;;;;3.30;1.70;;;;;;;;;;5095646;28;20399;-69
2021/07/07 14:35:35;;;;;;;2.73;1.57;;;;;;;;;;5092215;28;20813;-69
2021/07/07 14:38:01;;;;;;;2.80;1.37;;;;;;;;;;5096032;28;20412;-70
2021/07/07 14:40:27;;;;;;;3.17;1.50;;;;;;;;;;5094212;28;20479;-71
2021/07/07 14:42:53;;;;;;;2.43;1.20;;;;;;;;;;5086928;28;20521;-71
2021/07/07 14:45:19;;;;;;;3.47;1.30;;;;;;;;;;5086164;28;20904;-69